Time;durP1;ratioP1;P1;durP2;ratioP2;P2;SDS_P1;SDS_P2;PMS_P1;PMS_P2;Temp;Humidity;BMP_temperature;BMP_pressure;BME280_temperature;BME280_humidity;BME280_pressure;Samples;Min_cycle;Max_cycle;Signal;HPM_P1;HPM_P2
2023/07/24 04:00:27;;;;;;;2.27;1.53;;;19.20;97.30;;;;;;5956842;23;21460;31
2023/07/24 04:02:56;;;;;;;1.90;1.80;;;19.20;97.30;;;;;;4874586;29;20486;-85
2023/07/24 04:05:28;;;;;;;2.40;1.57;;;19.20;97.30;;;;;;4874460;29;21016;-84
2023/07/24 04:07:55;;;;;;;9.33;2.20;;;19.20;97.30;;;;;;4876823;29;20473;-85
2023/07/24 04:10:26;;;;;;;2.50;1.93;;;19.20;97.30;;;;;;4876321;29;20442;-83
2023/07/24 04:12:51;;;;;;;1.67;1.57;;;19.20;97.30;;;;;;4855522;29;20499;-85
2023/07/24 04:15:17;;;;;;;3.37;2.27;;;19.20;97.30;;;;;;4858065;29;20854;-85
2023/07/24 04:17:43;;;;;;;11.30;1.97;;;19.20;97.30;;;;;;4857963;29;20201;-85
2023/07/24 04:20:09;;;;;;;1.33;1.27;;;19.20;97.30;;;;;;4858841;29;20661;-85
2023/07/24 04:22:34;;;;;;;1.77;1.77;;;19.20;97.30;;;;;;4857409;29;20234;-86
2023/07/24 04:25:00;;;;;;;1.93;1.77;;;19.20;97.30;;;;;;4857750;29;20282;-85
2023/07/24 04:27:25;;;;;;;1.97;1.83;;;19.20;97.30;;;;;;4857739;29;20293;-85
2023/07/24 04:29:51;;;;;;;3.60;1.90;;;19.20;97.30;;;;;;4857956;29;20272;-86
2023/07/24 04:32:16;;;;;;;1.17;1.17;;;19.20;97.30;;;;;;4857505;29;20556;-85
2023/07/24 04:34:42;;;;;;;2.43;1.77;;;19.20;97.30;;;;;;4860122;29;20186;-85
2023/07/24 04:37:07;;;;;;;1.20;1.03;;;19.20;97.30;;;;;;4880296;29;20177;-86
2023/07/24 04:39:33;;;;;;;3.47;1.40;;;19.20;97.30;;;;;;4855419;29;20803;-85
2023/07/24 04:41:59;;;;;;;4.23;1.63;;;19.10;97.30;;;;;;4858091;29;20719;-86
2023/07/24 04:44:25;;;;;;;6.10;1.40;;;19.10;97.30;;;;;;4858131;29;20257;-84
2023/07/24 04:46:55;;;;;;;2.73;2.53;;;19.10;97.30;;;;;;4860889;29;20181;-85
2023/07/24 04:49:24;;;;;;;1.53;1.23;;;19.20;97.30;;;;;;4858586;29;20494;-85
2023/07/24 04:51:50;;;;;;;2.47;1.87;;;19.20;97.30;;;;;;4856771;29;20447;-85
2023/07/24 04:54:15;;;;;;;1.33;1.23;;;19.20;97.30;;;;;;4855348;29;20444;-85
2023/07/24 04:56:41;;;;;;;1.30;1.20;;;19.20;97.30;;;;;;4854317;29;20435;-83
2023/07/24 04:59:07;;;;;;;2.20;2.00;;;19.20;97.30;;;;;;4854292;29;20274;-84
2023/07/24 05:01:35;;;;;;;2.67;2.00;;;19.20;97.30;;;;;;4861667;29;20226;-85
2023/07/24 05:04:04;;;;;;;3.07;2.87;;;19.20;97.30;;;;;;4874837;29;20621;-83
2023/07/24 05:06:29;;;;;;;1.67;1.50;;;19.20;97.30;;;;;;4873683;29;20420;-84
2023/07/24 05:08:55;;;;;;;3.27;2.87;;;19.20;97.30;;;;;;4875363;29;20433;-84
2023/07/24 05:11:20;;;;;;;4.20;2.40;;;19.20;97.30;;;;;;4870845;29;20659;-84
2023/07/24 05:13:46;;;;;;;2.80;1.90;;;19.30;97.30;;;;;;4874543;29;20245;-84
2023/07/24 05:16:11;;;;;;;5.47;2.57;;;19.30;97.30;;;;;;4874301;29;20696;-84
2023/07/24 05:18:37;;;;;;;2.40;1.30;;;19.30;97.30;;;;;;4874344;29;20215;-84
2023/07/24 05:21:02;;;;;;;1.57;1.47;;;19.40;97.30;;;;;;4870831;29;20206;-81
2023/07/24 05:23:28;;;;;;;2.20;1.93;;;19.40;97.30;;;;;;4873798;29;20720;-83
2023/07/24 05:25:58;;;;;;;1.77;1.43;;;19.50;97.30;;;;;;4869883;29;20170;-83
2023/07/24 05:28:25;;;;;;;2.40;2.07;;;19.50;97.30;;;;;;4875030;29;20216;-84
2023/07/24 05:30:51;;;;;;;6.50;2.93;;;19.60;97.30;;;;;;4873056;29;20461;-83
2023/07/24 05:33:17;;;;;;;3.17;2.93;;;19.70;97.30;;;;;;4876144;29;20940;-83
2023/07/24 05:35:43;;;;;;;1.93;1.87;;;19.80;97.30;;;;;;4879617;29;20268;-85
2023/07/24 05:38:08;;;;;;;3.23;2.67;;;19.90;97.30;;;;;;4875933;29;20268;-83
2023/07/24 05:40:34;;;;;;;4.17;2.27;;;20.00;97.30;;;;;;4876578;29;21012;-84
2023/07/24 05:43:03;;;;;;;6.80;2.17;;;20.00;97.30;;;;;;4874750;29;20532;-83
2023/07/24 05:45:35;;;;;;;4.23;2.20;;;20.10;97.30;;;;;;4875744;29;20182;-86
2023/07/24 05:48:00;;;;;;;2.93;2.23;;;20.20;97.30;;;;;;4883302;29;20493;-84
2023/07/24 05:50:26;;;;;;;4.07;2.50;;;20.30;96.50;;;;;;4874675;29;20462;-84
2023/07/24 05:52:51;;;;;;;1.77;1.67;;;20.40;95.80;;;;;;4875335;29;20265;-83
2023/07/24 05:55:17;;;;;;;2.30;2.10;;;20.50;95.70;;;;;;4875184;29;20654;-84
2023/07/24 05:57:42;;;;;;;2.40;1.67;;;20.70;95.30;;;;;;4874085;29;20217;-83
2023/07/24 06:00:08;;;;;;;1.60;1.50;;;20.80;94.20;;;;;;4875087;29;20609;-83
2023/07/24 06:02:33;;;;;;;2.53;1.63;;;20.90;93.60;;;;;;4874694;29;20708;-83
2023/07/24 06:05:01;;;;;;;1.73;1.63;;;21.00;93.70;;;;;;4875562;29;20237;-84
2023/07/24 06:07:27;;;;;;;5.80;2.60;;;21.10;92.40;;;;;;4891294;29;20184;-84
2023/07/24 06:09:52;;;;;;;4.40;2.87;;;21.20;92.20;;;;;;4876776;29;20517;-85
2023/07/24 06:12:18;;;;;;;2.90;2.00;;;21.30;92.00;;;;;;4873296;29;20216;-85
2023/07/24 06:14:46;;;;;;;3.33;2.53;;;21.40;92.00;;;;;;4877180;29;20186;-85
2023/07/24 06:17:17;;;;;;;4.93;2.40;;;21.40;91.30;;;;;;4891348;29;20248;-86
2023/07/24 06:19:46;;;;;;;5.93;2.20;;;21.50;91.30;;;;;;4890868;29;20435;-85
2023/07/24 06:22:14;;;;;;;4.13;1.90;;;21.60;90.90;;;;;;4892370;29;20439;-85
2023/07/24 06:24:58;;;;;;;1.97;1.90;;;21.70;91.00;;;;;;4880239;29;20469;-85
2023/07/24 06:27:27;;;;;;;2.77;2.57;;;21.80;90.10;;;;;;4875170;29;20426;-83
2023/07/24 06:29:55;;;;;;;3.93;2.20;;;21.90;90.70;;;;;;4874657;29;20781;-84
2023/07/24 06:32:22;;;;;;;1.97;1.60;;;22.00;90.50;;;;;;4877659;29;20446;-84
2023/07/24 06:34:48;;;;;;;2.73;2.23;;;22.10;88.70;;;;;;4879077;29;20430;-84
2023/07/24 06:37:16;;;;;;;7.13;3.53;;;22.20;88.90;;;;;;4883634;29;20954;-85
2023/07/24 06:39:45;;;;;;;4.70;3.10;;;22.30;88.90;;;;;;4878597;29;20285;-83
2023/07/24 06:42:13;;;;;;;2.40;1.50;;;22.40;88.80;;;;;;4876155;29;20451;-85
2023/07/24 06:44:38;;;;;;;5.77;2.53;;;22.40;88.60;;;;;;4878041;29;20533;-85
2023/07/24 06:47:04;;;;;;;4.80;2.70;;;22.50;88.00;;;;;;4879071;29;20442;-84
2023/07/24 06:49:29;;;;;;;4.20;2.67;;;22.60;88.30;;;;;;4876131;29;20342;-84
2023/07/24 06:51:55;;;;;;;6.87;2.53;;;22.70;87.50;;;;;;4879957;29;20711;-85
2023/07/24 06:54:20;;;;;;;5.90;3.03;;;22.80;87.50;;;;;;4879731;29;20190;-85
2023/07/24 06:56:46;;;;;;;4.03;2.43;;;22.90;88.10;;;;;;4878955;29;20870;-84
2023/07/24 06:59:15;;;;;;;3.70;2.30;;;22.90;87.10;;;;;;4879082;29;20196;-84
2023/07/24 07:01:41;;;;;;;4.50;1.63;;;23.00;86.10;;;;;;4877806;29;20233;-84
2023/07/24 07:04:06;;;;;;;1.37;1.30;;;23.10;85.60;;;;;;4878798;29;20481;-86
2023/07/24 07:06:35;;;;;;;1.93;1.90;;;23.20;85.60;;;;;;4878250;29;20182;-84
2023/07/24 07:09:16;;;;;;;3.17;2.27;;;23.30;85.50;;;;;;4878477;29;20199;-87
2023/07/24 07:11:47;;;;;;;2.17;2.03;;;23.40;84.90;;;;;;4878390;29;20442;-84
2023/07/24 07:14:28;;;;;;;2.73;1.60;;;23.50;84.70;;;;;;4877947;29;20857;-84
2023/07/24 07:17:26;;;;;;;1.43;1.33;;;23.60;85.00;;;;;;4878331;29;20719;-84
2023/07/24 07:20:18;;;;;;;3.10;1.73;;;23.70;86.00;;;;;;4878231;29;20430;-84
2023/07/24 07:22:46;;;;;;;11.37;4.37;;;23.70;85.60;;;;;;4870746;29;20466;-83
2023/07/24 07:25:16;;;;;;;3.63;2.00;;;23.80;84.90;;;;;;4878004;29;20465;-85
2023/07/24 07:27:48;;;;;;;1.90;1.87;;;23.80;84.30;;;;;;4878041;29;20423;-83
2023/07/24 07:30:38;;;;;;;4.20;2.17;;;23.80;85.00;;;;;;4878858;29;20434;-85
2023/07/24 07:33:21;;;;;;;2.23;1.60;;;23.80;85.50;;;;;;4891210;29;20418;-84
2023/07/24 07:36:39;;;;;;;4.67;3.00;;;23.80;85.30;;;;;;4896809;29;20429;-85
2023/07/24 07:40:08;;;;;;;4.50;2.30;;;23.80;85.50;;;;;;4897376;29;20440;-84
2023/07/24 07:42:34;;;;;;;3.90;2.13;;;23.90;84.90;;;;;;4949268;23;20553;-75
2023/07/24 07:44:59;;;;;;;3.97;1.87;;;24.00;85.20;;;;;;4944584;28;21020;-72
2023/07/24 07:47:25;;;;;;;2.07;1.93;;;24.10;84.90;;;;;;4944133;29;20628;-73
2023/07/24 07:49:50;;;;;;;4.83;2.40;;;24.20;84.90;;;;;;4947113;29;20186;-73
2023/07/24 07:52:17;;;;;;;3.30;1.67;;;24.30;84.70;;;;;;4932107;28;20208;-75
2023/07/24 07:54:46;;;;;;;2.47;2.10;;;24.40;84.40;;;;;;4930622;29;20287;-74
2023/07/24 07:57:12;;;;;;;2.83;1.37;;;24.50;83.70;;;;;;4931641;29;20867;-75
2023/07/24 07:59:38;;;;;;;1.90;1.73;;;24.50;83.60;;;;;;4931080;29;20975;-74
2023/07/24 08:02:03;;;;;;;2.27;2.10;;;24.50;83.10;;;;;;4923485;29;20292;-74
2023/07/24 08:04:29;;;;;;;6.83;3.00;;;24.60;83.20;;;;;;4931164;29;20294;-75
2023/07/24 08:06:54;;;;;;;4.17;2.70;;;24.60;83.00;;;;;;4931396;29;20205;-75
2023/07/24 08:09:21;;;;;;;3.27;2.27;;;24.60;82.80;;;;;;4930556;29;20209;-74
2023/07/24 08:11:47;;;;;;;3.50;2.43;;;24.60;82.80;;;;;;4930850;29;20233;-74
2023/07/24 08:14:13;;;;;;;1.70;1.57;;;24.60;83.20;;;;;;4931909;29;20905;-72
2023/07/24 08:16:38;;;;;;;6.17;3.20;;;24.70;82.50;;;;;;4930533;29;20524;-75
2023/07/24 08:19:04;;;;;;;3.13;2.43;;;24.70;82.20;;;;;;4930731;29;20192;-74
2023/07/24 08:21:29;;;;;;;9.17;2.47;;;24.70;83.50;;;;;;4931924;29;20200;-74
2023/07/24 08:23:56;;;;;;;1.87;1.63;;;24.70;82.40;;;;;;4931759;29;20809;-73
2023/07/24 08:26:24;;;;;;;3.10;2.30;;;24.70;83.10;;;;;;4930529;29;20176;-74
2023/07/24 08:28:50;;;;;;;2.50;2.17;;;24.80;83.50;;;;;;4931687;29;20807;-75
2023/07/24 08:31:15;;;;;;;4.73;2.60;;;24.80;82.70;;;;;;4931749;29;20447;-76
2023/07/24 08:33:41;;;;;;;2.30;1.53;;;24.80;82.40;;;;;;4930146;29;20772;-74
2023/07/24 08:36:07;;;;;;;3.17;1.83;;;24.90;82.00;;;;;;4930058;29;20730;-74
2023/07/24 08:38:36;;;;;;;2.80;1.97;;;25.00;82.60;;;;;;4931534;29;20190;-75
2023/07/24 08:41:05;;;;;;;5.03;2.60;;;25.00;81.80;;;;;;4931230;29;20562;-75
2023/07/24 08:43:32;;;;;;;2.40;2.20;;;25.10;81.10;;;;;;4930212;29;20471;-73
2023/07/24 08:46:02;;;;;;;1.57;1.37;;;25.10;81.80;;;;;;4929463;29;20427;-74
2023/07/24 08:48:38;;;;;;;2.37;1.57;;;25.20;81.10;;;;;;4931908;29;20422;-76
2023/07/24 08:51:05;;;;;;;3.53;1.63;;;25.20;81.40;;;;;;4931519;29;20581;-76
2023/07/24 08:53:35;;;;;;;5.07;1.77;;;25.20;80.60;;;;;;4931105;29;20432;-75
2023/07/24 08:56:06;;;;;;;5.37;3.27;;;25.20;80.40;;;;;;4930825;29;20538;-74
2023/07/24 08:58:32;;;;;;;4.57;2.97;;;25.30;80.00;;;;;;4925464;29;20427;-80
2023/07/24 09:00:59;;;;;;;2.07;1.87;;;25.40;81.10;;;;;;4929436;29;20459;-74
2023/07/24 09:03:24;;;;;;;2.83;1.40;;;25.50;81.10;;;;;;4929526;29;20463;-75
2023/07/24 09:05:50;;;;;;;2.30;2.17;;;25.60;80.90;;;;;;4929399;29;20420;-74
2023/07/24 09:08:16;;;;;;;3.03;1.50;;;25.80;79.30;;;;;;4929922;29;20263;-76
2023/07/24 09:10:41;;;;;;;3.67;2.50;;;25.90;78.30;;;;;;4929290;29;20290;-73
2023/07/24 09:13:07;;;;;;;2.10;1.73;;;26.10;79.40;;;;;;4929344;29;20255;-76
2023/07/24 09:15:43;;;;;;;4.33;2.37;;;26.20;79.40;;;;;;4931403;29;20194;-75
2023/07/24 09:18:09;;;;;;;3.43;2.00;;;26.40;79.00;;;;;;4929900;29;20419;-75
2023/07/24 09:20:43;;;;;;;3.30;2.37;;;26.60;78.10;;;;;;4929526;29;20576;-71
2023/07/24 09:23:10;;;;;;;2.57;1.70;;;26.60;77.80;;;;;;4921844;29;20514;-75
2023/07/24 09:25:38;;;;;;;5.00;2.80;;;26.70;78.30;;;;;;4929827;29;20936;-80
2023/07/24 09:28:14;;;;;;;4.53;2.03;;;26.70;77.50;;;;;;4929894;29;20439;-78
2023/07/24 09:30:41;;;;;;;4.27;1.93;;;26.60;78.00;;;;;;4929648;29;20454;-74
2023/07/24 09:33:07;;;;;;;4.30;2.23;;;26.60;77.20;;;;;;4929637;29;20424;-81
2023/07/24 09:35:32;;;;;;;5.17;1.90;;;26.50;77.30;;;;;;4930727;29;20419;-79
2023/07/24 09:38:09;;;;;;;4.90;2.33;;;26.50;77.50;;;;;;4929608;29;20424;-78
2023/07/24 09:40:43;;;;;;;3.40;1.80;;;26.50;78.20;;;;;;4929479;29;20293;-79
2023/07/24 09:43:19;;;;;;;2.87;2.10;;;26.50;78.50;;;;;;4930978;29;20420;-76
2023/07/24 09:45:46;;;;;;;1.70;1.60;;;26.50;77.60;;;;;;4929037;29;20426;-75
2023/07/24 09:48:14;;;;;;;2.27;2.10;;;26.60;77.80;;;;;;4929338;29;21016;-78
2023/07/24 09:50:41;;;;;;;3.70;2.53;;;26.70;79.20;;;;;;4919366;29;20571;-76
2023/07/24 09:53:19;;;;;;;10.23;2.13;;;26.80;78.10;;;;;;4928507;29;20420;-77
2023/07/24 09:56:00;;;;;;;3.17;2.20;;;27.00;79.10;;;;;;4943142;28;20955;-74
2023/07/24 09:58:26;;;;;;;10.43;2.83;;;27.10;78.20;;;;;;4943603;29;20486;-75
2023/07/24 10:00:53;;;;;;;2.47;2.03;;;27.20;77.20;;;;;;4932679;29;20968;-76
2023/07/24 10:03:20;;;;;;;3.03;1.73;;;27.30;77.30;;;;;;4933435;29;20588;-78
2023/07/24 10:05:47;;;;;;;1.50;1.43;;;27.40;77.60;;;;;;4930437;29;20432;-79
2023/07/24 10:08:14;;;;;;;3.60;2.17;;;27.40;76.90;;;;;;4921931;29;20462;-76
2023/07/24 10:10:40;;;;;;;5.70;2.70;;;27.50;75.90;;;;;;4922712;29;21440;-72
2023/07/24 10:13:10;;;;;;;2.80;1.87;;;27.60;75.90;;;;;;4926184;29;20561;-73
2023/07/24 10:15:39;;;;;;;4.73;2.77;;;27.60;75.90;;;;;;4932228;29;20172;-78
2023/07/24 10:18:07;;;;;;;2.70;2.50;;;27.50;75.60;;;;;;4925144;29;20712;-74
2023/07/24 10:20:38;;;;;;;5.60;2.03;;;27.40;76.80;;;;;;4935345;23;20918;-78
2023/07/24 10:23:05;;;;;;;6.90;3.70;;;27.50;76.50;;;;;;4921726;29;20432;-79
2023/07/24 10:25:32;;;;;;;4.73;2.20;;;27.50;76.80;;;;;;4922805;29;20518;-83
2023/07/24 10:28:10;;;;;;;4.57;2.20;;;27.60;76.60;;;;;;4920382;29;20443;-84
2023/07/24 10:30:37;;;;;;;3.73;2.40;;;27.70;77.10;;;;;;4909292;29;20468;-80
2023/07/24 10:33:07;;;;;;;1.70;1.60;;;27.70;76.00;;;;;;4902780;29;20440;-82
2023/07/24 10:35:46;;;;;;;3.63;2.20;;;27.70;77.00;;;;;;4957781;23;20497;-65
2023/07/24 10:38:13;;;;;;;6.80;2.53;;;27.80;76.90;;;;;;4926658;28;20424;-65
2023/07/24 10:40:40;;;;;;;2.77;2.20;;;27.90;77.70;;;;;;4928597;28;20449;-67
2023/07/24 10:43:17;;;;;;;4.83;2.63;;;28.00;77.00;;;;;;4930904;29;20435;-67
2023/07/24 10:45:50;;;;;;;7.63;2.67;;;28.10;77.30;;;;;;4927344;29;20432;-67
2023/07/24 10:48:20;;;;;;;4.93;2.87;;;28.20;76.30;;;;;;4922509;29;20487;-66
2023/07/24 10:50:48;;;;;;;4.60;2.67;;;28.20;75.80;;;;;;4927441;29;20439;-67
2023/07/24 10:53:15;;;;;;;3.20;2.20;;;28.10;76.10;;;;;;4920190;29;20444;-72
2023/07/24 10:55:42;;;;;;;5.43;2.97;;;28.10;76.00;;;;;;4917488;29;20436;-69
2023/07/24 10:58:08;;;;;;;6.50;2.70;;;28.00;76.80;;;;;;4930786;29;20445;-70
2023/07/24 11:00:34;;;;;;;5.70;3.13;;;28.10;76.80;;;;;;4922586;29;20443;-74
2023/07/24 11:03:01;;;;;;;3.30;2.50;;;28.10;77.40;;;;;;4925160;29;20941;-67
2023/07/24 11:05:26;;;;;;;6.73;2.50;;;28.10;77.80;;;;;;4914493;29;20189;-68
2023/07/24 11:07:52;;;;;;;9.40;3.07;;;28.10;77.20;;;;;;4930945;29;20448;-69
2023/07/24 11:10:22;;;;;;;5.20;3.47;;;28.10;77.50;;;;;;4917323;29;20211;-68
2023/07/24 11:12:50;;;;;;;4.20;2.00;;;28.10;76.80;;;;;;4918249;29;20244;-73
2023/07/24 11:15:15;;;;;;;3.27;2.00;;;28.00;77.80;;;;;;4916157;29;20436;-73
2023/07/24 11:17:42;;;;;;;6.80;3.40;;;28.00;76.90;;;;;;4920833;29;20440;-76
2023/07/24 11:20:13;;;;;;;4.70;2.63;;;28.00;77.00;;;;;;4925595;29;20239;-72
2023/07/24 11:22:40;;;;;;;4.73;3.93;;;28.00;77.30;;;;;;4921389;29;20445;-69
2023/07/24 11:25:06;;;;;;;4.77;4.07;;;28.00;77.60;;;;;;4923816;29;20476;-68
2023/07/24 11:27:32;;;;;;;6.60;3.53;;;28.00;77.60;;;;;;4923868;29;21102;-71
2023/07/24 11:29:58;;;;;;;4.67;3.10;;;28.00;77.70;;;;;;4922060;29;21066;-69
2023/07/24 11:32:24;;;;;;;4.30;1.97;;;27.90;76.90;;;;;;4921874;29;20522;-73
2023/07/24 11:34:51;;;;;;;6.10;2.73;;;27.90;76.90;;;;;;4918043;29;20264;-70
2023/07/24 11:37:18;;;;;;;4.23;3.60;;;27.80;77.40;;;;;;4921156;29;20634;-69
2023/07/24 11:39:54;;;;;;;2.93;2.50;;;27.80;77.10;;;;;;4920383;29;20428;-67
2023/07/24 11:42:20;;;;;;;5.33;3.17;;;27.70;76.80;;;;;;4931550;29;20723;-69
2023/07/24 11:44:45;;;;;;;6.60;2.17;;;27.70;77.60;;;;;;4920192;29;20475;-67
2023/07/24 11:47:11;;;;;;;3.70;2.10;;;27.70;77.80;;;;;;4917328;29;20188;-70
2023/07/24 11:49:37;;;;;;;7.93;3.37;;;27.80;77.80;;;;;;4920179;29;20191;-67
2023/07/24 11:52:07;;;;;;;5.90;2.30;;;27.90;77.20;;;;;;4914056;29;20653;-69
2023/07/24 11:54:34;;;;;;;2.27;2.00;;;27.90;77.00;;;;;;4913871;29;20189;-70
2023/07/24 11:57:00;;;;;;;2.87;2.67;;;28.00;77.30;;;;;;4920357;29;20443;-69
2023/07/24 11:59:26;;;;;;;8.57;3.20;;;28.00;77.00;;;;;;4920305;29;20793;-66
2023/07/24 12:01:52;;;;;;;4.73;1.80;;;28.10;77.50;;;;;;4919700;29;20215;-70
2023/07/24 12:04:18;;;;;;;6.33;3.97;;;28.20;77.70;;;;;;4913614;29;20468;-67
2023/07/24 12:06:44;;;;;;;14.33;4.10;;;28.20;77.00;;;;;;4922175;29;20206;-69
2023/07/24 12:09:11;;;;;;;6.00;3.00;;;28.30;76.90;;;;;;4922461;29;20262;-63
2023/07/24 12:11:43;;;;;;;2.70;2.57;;;28.40;77.00;;;;;;4917090;29;20677;-69
2023/07/24 12:14:09;;;;;;;5.47;3.37;;;28.50;76.10;;;;;;4921006;29;20555;-69
2023/07/24 12:16:36;;;;;;;5.90;3.80;;;28.60;75.30;;;;;;4924317;29;20436;-70
2023/07/24 12:19:01;;;;;;;7.20;4.63;;;28.70;76.20;;;;;;4930963;29;20188;-65
2023/07/24 12:21:27;;;;;;;11.47;3.83;;;28.70;75.20;;;;;;4918107;29;20454;-65
2023/07/24 12:23:53;;;;;;;4.40;2.70;;;28.70;75.70;;;;;;4913410;29;20282;-67
2023/07/24 12:26:18;;;;;;;5.73;3.23;;;28.60;75.70;;;;;;4913910;29;20191;-69
2023/07/24 12:28:44;;;;;;;3.40;2.53;;;28.60;76.60;;;;;;4920763;29;20189;-70
2023/07/24 12:31:09;;;;;;;27.03;3.17;;;28.70;76.10;;;;;;4926241;29;20213;-67
2023/07/24 12:33:35;;;;;;;10.60;4.27;;;28.70;76.00;;;;;;4918450;29;20188;-68
2023/07/24 12:36:01;;;;;;;7.10;3.50;;;28.70;76.00;;;;;;4918601;29;20220;-68
2023/07/24 12:38:27;;;;;;;7.90;3.70;;;28.80;76.70;;;;;;4914830;29;20256;-71
2023/07/24 12:40:53;;;;;;;9.83;4.20;;;29.10;76.30;;;;;;4927463;29;20568;-69
2023/07/24 12:43:18;;;;;;;6.67;3.90;;;29.10;75.60;;;;;;4916298;29;20328;-72
2023/07/24 12:45:44;;;;;;;13.23;2.80;;;29.10;75.80;;;;;;4928193;29;20176;-70
2023/07/24 12:48:09;;;;;;;3.27;2.90;;;29.00;74.80;;;;;;4912106;29;20196;-69
2023/07/24 12:50:35;;;;;;;4.97;3.37;;;28.90;75.10;;;;;;4911141;29;20566;-70
2023/07/24 12:53:01;;;;;;;3.53;2.60;;;28.80;74.90;;;;;;4923362;29;20184;-66
2023/07/24 12:55:27;;;;;;;5.57;2.80;;;28.70;75.50;;;;;;4918844;29;20192;-64
2023/07/24 12:57:52;;;;;;;8.43;3.60;;;28.70;75.60;;;;;;4919520;29;20220;-66
2023/07/24 13:00:18;;;;;;;5.70;2.90;;;28.60;75.40;;;;;;4917467;29;21857;-68
2023/07/24 13:02:44;;;;;;;13.07;4.03;;;28.60;75.70;;;;;;4912172;29;20189;-68
2023/07/24 13:05:09;;;;;;;6.07;3.23;;;28.50;75.60;;;;;;4922268;29;20295;-67
2023/07/24 13:07:35;;;;;;;4.33;2.60;;;28.30;75.50;;;;;;4922646;29;20187;-67
2023/07/24 13:10:00;;;;;;;6.10;3.63;;;28.20;75.10;;;;;;4927921;29;20644;-68
2023/07/24 13:12:26;;;;;;;11.93;3.77;;;28.10;74.80;;;;;;4909643;29;20210;-69
2023/07/24 13:14:51;;;;;;;5.70;3.17;;;28.00;75.10;;;;;;4917353;29;20567;-65
2023/07/24 13:17:17;;;;;;;5.43;3.00;;;28.00;75.30;;;;;;4926076;29;20671;-68
2023/07/24 13:19:43;;;;;;;9.43;3.83;;;27.90;75.70;;;;;;4911400;29;20679;-69
2023/07/24 13:22:08;;;;;;;3.63;2.00;;;27.80;76.10;;;;;;4909457;29;20207;-70
2023/07/24 13:24:34;;;;;;;5.43;3.20;;;27.80;76.30;;;;;;4914117;29;20226;-73
2023/07/24 13:26:59;;;;;;;6.07;3.17;;;27.70;77.10;;;;;;4914762;29;20188;-70
2023/07/24 13:29:25;;;;;;;4.80;2.83;;;27.70;77.00;;;;;;4924553;29;20240;-71
2023/07/24 13:31:54;;;;;;;5.80;3.30;;;27.60;77.10;;;;;;4920158;29;20214;-69
2023/07/24 13:34:19;;;;;;;5.33;3.60;;;27.60;77.20;;;;;;4908253;29;20228;-69
2023/07/24 13:36:47;;;;;;;12.03;3.60;;;27.60;77.00;;;;;;4915402;29;20440;-68
2023/07/24 13:39:12;;;;;;;3.03;2.20;;;27.50;76.80;;;;;;4919182;29;20550;-69
2023/07/24 13:41:38;;;;;;;6.67;3.67;;;27.50;76.50;;;;;;4913651;29;21011;-67
2023/07/24 13:44:04;;;;;;;5.43;3.13;;;27.50;76.90;;;;;;4920084;29;20683;-68
2023/07/24 13:46:30;;;;;;;7.93;2.50;;;27.50;77.20;;;;;;4925422;29;20656;-68
2023/07/24 13:48:55;;;;;;;5.93;2.73;;;27.50;77.70;;;;;;4918252;29;20511;-67
2023/07/24 13:51:21;;;;;;;5.00;2.70;;;27.50;78.40;;;;;;4912243;29;20212;-67
2023/07/24 13:53:49;;;;;;;5.63;3.07;;;27.50;79.00;;;;;;4922021;29;20271;-67
2023/07/24 13:56:14;;;;;;;5.97;3.00;;;27.50;79.40;;;;;;4922609;29;20192;-67
2023/07/24 13:58:40;;;;;;;6.40;3.37;;;27.50;79.80;;;;;;4918273;29;20490;-67
2023/07/24 14:01:07;;;;;;;4.93;2.33;;;27.50;79.90;;;;;;4919454;29;20208;-67
2023/07/24 14:03:33;;;;;;;4.63;2.70;;;27.60;79.00;;;;;;4908769;29;20592;-67
2023/07/24 14:05:58;;;;;;;6.43;3.10;;;27.60;78.90;;;;;;4922419;29;20428;-67
2023/07/24 14:08:24;;;;;;;6.53;3.87;;;27.70;78.80;;;;;;4911930;29;20374;-67
2023/07/24 14:10:49;;;;;;;4.20;3.10;;;27.70;79.60;;;;;;4919399;29;20672;-67
2023/07/24 14:13:15;;;;;;;3.07;2.87;;;27.80;78.90;;;;;;4918215;29;20319;-71
2023/07/24 14:15:41;;;;;;;5.77;2.53;;;27.90;78.70;;;;;;4916964;29;20646;-67
2023/07/24 14:18:06;;;;;;;5.40;2.63;;;27.90;78.70;;;;;;4909125;29;20365;-72
2023/07/24 14:20:32;;;;;;;6.10;3.07;;;27.90;77.80;;;;;;4911855;29;20283;-72
2023/07/24 14:22:57;;;;;;;7.37;3.67;;;27.80;77.90;;;;;;4911232;29;20184;-71
2023/07/24 14:25:23;;;;;;;4.67;2.60;;;27.80;78.00;;;;;;4924970;29;20212;-71
2023/07/24 14:27:48;;;;;;;8.83;5.37;;;27.70;77.90;;;;;;4910131;29;20191;-67
2023/07/24 14:30:14;;;;;;;7.73;3.40;;;27.70;77.70;;;;;;4916817;29;20620;-68
2023/07/24 14:32:39;;;;;;;4.10;3.40;;;27.60;77.40;;;;;;4915241;29;20180;-71
2023/07/24 14:35:05;;;;;;;4.43;2.97;;;27.60;77.60;;;;;;4918462;29;20255;-70
2023/07/24 14:37:31;;;;;;;5.57;3.07;;;27.60;77.60;;;;;;4920549;29;20270;-69
2023/07/24 14:39:57;;;;;;;5.93;3.10;;;27.70;78.10;;;;;;4909284;29;20853;-69
2023/07/24 14:42:22;;;;;;;3.00;2.53;;;27.70;78.70;;;;;;4916608;29;20768;-69
2023/07/24 14:44:48;;;;;;;4.23;3.27;;;27.80;78.60;;;;;;4919380;29;20215;-69
2023/07/24 14:47:14;;;;;;;6.63;3.30;;;28.00;79.00;;;;;;4923923;29;20184;-71
2023/07/24 14:49:39;;;;;;;5.80;3.87;;;28.30;79.20;;;;;;4918442;29;20172;-69
2023/07/24 14:52:05;;;;;;;5.90;3.30;;;28.60;78.40;;;;;;4924892;29;20444;-71
2023/07/24 14:54:31;;;;;;;9.40;3.83;;;28.80;78.30;;;;;;4924050;29;20184;-71
2023/07/24 14:56:58;;;;;;;5.03;3.40;;;29.00;77.40;;;;;;4917950;29;20201;-73
2023/07/24 14:59:23;;;;;;;4.50;3.10;;;29.00;76.70;;;;;;4920190;29;20436;-69
2023/07/24 15:01:49;;;;;;;4.77;1.73;;;28.80;76.30;;;;;;4920566;29;20475;-69
2023/07/24 15:04:14;;;;;;;7.60;2.67;;;28.60;77.70;;;;;;4916006;29;20459;-71
2023/07/24 15:06:40;;;;;;;4.67;3.60;;;28.50;77.80;;;;;;4931351;29;20523;-80
2023/07/24 15:09:05;;;;;;;3.70;2.80;;;28.40;77.80;;;;;;4917365;29;20211;-72
2023/07/24 15:11:31;;;;;;;5.83;2.67;;;28.60;77.60;;;;;;4923563;29;20575;-79
2023/07/24 15:13:56;;;;;;;6.60;3.57;;;28.90;77.60;;;;;;4924537;29;20188;-70
2023/07/24 15:16:22;;;;;;;7.57;2.47;;;28.90;77.00;;;;;;4912542;29;20193;-72
2023/07/24 15:18:47;;;;;;;5.27;2.40;;;28.70;77.60;;;;;;4921225;29;20192;-68
2023/07/24 15:21:13;;;;;;;7.50;5.17;;;28.70;77.80;;;;;;4931402;29;20516;-76
2023/07/24 15:23:39;;;;;;;8.90;3.60;;;28.70;77.30;;;;;;4920537;29;20216;-69
2023/07/24 15:26:04;;;;;;;5.80;3.33;;;28.60;77.40;;;;;;4926631;29;20357;-69
2023/07/24 15:28:30;;;;;;;7.73;2.90;;;28.70;78.10;;;;;;4925372;29;20222;-71
2023/07/24 15:30:55;;;;;;;12.13;3.63;;;28.90;78.50;;;;;;4912680;29;20208;-67
2023/07/24 15:33:21;;;;;;;6.13;3.20;;;28.70;77.70;;;;;;4920860;29;20184;-72
2023/07/24 15:35:47;;;;;;;2.90;1.77;;;28.70;77.70;;;;;;4915489;29;20261;-71
2023/07/24 15:38:12;;;;;;;4.07;2.87;;;28.60;78.00;;;;;;4927243;29;20187;-68
2023/07/24 15:40:41;;;;;;;3.80;2.60;;;28.50;78.00;;;;;;4921308;29;20228;-70
2023/07/24 15:43:08;;;;;;;4.43;2.40;;;28.40;77.80;;;;;;4921060;29;20679;-70
2023/07/24 15:45:33;;;;;;;5.80;2.40;;;28.20;77.90;;;;;;4913758;29;20476;-71
2023/07/24 15:47:59;;;;;;;4.43;2.50;;;28.10;78.00;;;;;;4921387;29;20483;-71
2023/07/24 15:50:24;;;;;;;5.83;3.20;;;27.90;78.50;;;;;;4921309;29;20208;-73
2023/07/24 15:52:50;;;;;;;3.57;3.23;;;27.80;78.50;;;;;;4926627;29;20184;-70
2023/07/24 15:55:15;;;;;;;6.17;2.70;;;27.70;78.90;;;;;;4930199;29;20265;-70
2023/07/24 15:57:41;;;;;;;10.43;5.27;;;27.60;79.00;;;;;;4917215;29;20700;-66
2023/07/24 16:00:08;;;;;;;6.40;3.37;;;27.50;79.30;;;;;;4932088;29;20196;-73
2023/07/24 16:02:34;;;;;;;6.20;4.30;;;27.50;78.90;;;;;;4922926;29;20187;-67
2023/07/24 16:05:02;;;;;;;3.57;2.70;;;27.40;79.30;;;;;;4925840;29;20467;-72
2023/07/24 16:07:27;;;;;;;5.77;3.17;;;27.40;79.60;;;;;;4929904;29;21097;-70
2023/07/24 16:09:53;;;;;;;6.90;2.80;;;27.40;79.70;;;;;;4922913;29;20950;-69
2023/07/24 16:12:19;;;;;;;5.00;2.57;;;27.50;79.80;;;;;;4922433;29;20705;-67
2023/07/24 16:14:44;;;;;;;4.87;3.10;;;27.50;79.80;;;;;;4924139;29;20649;-68
2023/07/24 16:17:10;;;;;;;5.43;3.77;;;27.50;79.60;;;;;;4932197;29;20771;-69
2023/07/24 16:19:35;;;;;;;3.97;2.70;;;27.60;79.70;;;;;;4931968;29;20574;-70
2023/07/24 16:22:02;;;;;;;5.67;3.40;;;27.90;79.60;;;;;;4946184;23;20672;-74
2023/07/24 16:24:28;;;;;;;4.03;2.17;;;28.10;79.60;;;;;;4933053;29;20676;-66
2023/07/24 16:26:53;;;;;;;5.40;2.73;;;28.20;78.70;;;;;;4939040;28;20426;-65
2023/07/24 16:29:19;;;;;;;5.20;3.43;;;28.40;78.10;;;;;;4932402;29;20668;-65
2023/07/24 16:31:48;;;;;;;10.73;4.07;;;28.50;77.40;;;;;;4931178;29;20579;-74
2023/07/24 16:34:14;;;;;;;5.10;3.87;;;28.50;77.00;;;;;;4926399;29;20565;-68
2023/07/24 16:36:39;;;;;;;3.20;2.37;;;28.40;76.50;;;;;;4931613;29;20916;-69
2023/07/24 16:39:05;;;;;;;3.40;2.10;;;28.20;76.80;;;;;;4930948;29;20191;-69
2023/07/24 16:41:32;;;;;;;2.80;2.20;;;28.10;77.00;;;;;;4927037;29;20204;-69
2023/07/24 16:43:57;;;;;;;5.00;2.20;;;28.10;76.90;;;;;;4929741;29;20475;-66
2023/07/24 16:46:24;;;;;;;4.97;3.63;;;28.10;77.10;;;;;;4929866;29;20184;-71